Αρχική σελίδα
METAR-TAF:

METAR-TAF

Αεροδρόμια :

Νταρ ες Σαλάμ, Τανζανία

γεωγραφικό πλάτος: 06-52S, γεωγραφικό μήκος: 039-12E, υψόμετρο: 55 μ

Παρών καιρός

Η αναφορά έγινε 1 ώρα και 47 λεπτά πριν, στις 15:00 UTC
Άνεμος 10 kt από ΝA
Θερμοκρασία 27°C
Υγρασία 66%
Πίεση 1016 hPa
Ορατότητα 10 χλμ και άνω
Λίγα νέφη σε ύψος 2200 πόδια
Διάσπαρτα νέφη σε ύψος 8000 πόδια

METAR: HTDA 271500Z 14010KT 9999 FEW022 SCT080 27/20 Q1016 NOSIG

Χρόνος: 19:47 (16:47 UTC)

Πρόγνωση Καιρού

Η αναφορά έγινε 5 ώρες και 47 λεπτά πριν, στις 11:00 UTC
Η πρόγνωση ισχύει από τις 27 στις 12 UTC έως τις 28 στις 18 UTC
Άνεμος 10 kt από Ν
Ορατότητα 10 χλμ και άνω
Διάσπαρτα νέφη σε ύψος 2800 πόδια

TAF: HTDA 271100Z 2712/2818 17010KT 9999 SCT028

Μετεωρολογικές αναφορές και προγνώσεις για περισσότερα από 4000 αεροδρόμια (δελτία METAR και TAF).

Οι διαθέσιμοι σταθμοί απεικονίζονται στο χάρτη με κίτρινες και κόκκινες κουκκίδες.

Μετακινήστε το ποντίκι πάνω από τις κουκκίδες για να δείτε το όνομα του σταθμού.

Στη συνέχεια, κάντε κλικ για να δείτε τις μετεωρολογικές αναφορές και τις προγνώσεις καιρού.

Για να αλλάξετε το χάρτη: κάντε κλικ στα πράσινα κουμπιά με τον μαύρο σταυρό για να ζουμάρετε, στο πράσινο κουμπί με την παύλα για να αφαιρέσετε το ζουμ ή στα πράσινα βέλη για να αντιπαραβάλλετε χάρτες.


METAR-TAF: